| time (UTC) | temp F | wind direction | speed MPH | gust MPH | rain 1hr in | rain 24hr in | rain mn in | humidity % | barometer mb |
| 20260502164026 | 43 | 280 | 0.0 | 8.0 | 0.00 | 0.00 | 0.00 | 79 | 999.4 |
| 20260502163526 | 43 | 250 | 1.0 | 8.0 | 0.00 | 0.00 | 0.00 | 77 | 999.4 |
| 20260502163026 | 43 | 258 | 0.0 | 5.0 | 0.00 | 0.00 | 0.00 | 76 | 999.4 |
| 20260502162529 | 44 | 250 | 0.0 | 12.0 | 0.00 | 0.00 | 0.00 | 73 | 999.4 |
| 20260502162026 | 45 | 266 | 2.0 | 12.0 | 0.00 | 0.00 | 0.00 | 72 | 999.3 |
| 20260502161525 | 45 | 273 | 0.0 | 1.0 | 0.00 | 0.00 | 0.00 | 71 | 999.2 |
| 20260502161025 | 45 | 238 | 0.0 | 0.0 | 0.00 | 0.00 | 0.00 | 71 | 999.1 |
| 20260502160524 | 45 | 260 | 0.0 | 4.0 | 0.00 | 0.00 | 0.00 | 71 | 999.2 |
| 20260502152020 | 44 | 326 | 0.0 | 1.0 | 0.00 | 0.00 | 0.00 | 79 | 999.4 |
| 20260502151521 | 44 | 246 | 0.0 | 4.0 | 0.00 | 0.00 | 0.00 | 79 | 999.5 |
| 20260502151019 | 44 | 239 | 0.0 | 7.0 | 0.00 | 0.00 | 0.00 | 80 | 999.5 |
| 20260502150519 | 44 | 236 | 0.0 | 7.0 | 0.00 | 0.00 | 0.00 | 79 | 999.5 |
| 20260502130504 | 40 | 231 | 0.0 | 0.0 | 0.00 | 0.00 | 0.00 | 91 | 999.9 |
| 20260502123600 | 39 | 250 | 0.0 | 0.0 | 0.00 | 0.00 | 0.00 | 91 | 999.8 |
| 20260502123100 | 39 | 246 | 0.0 | 0.0 | 0.00 | 0.00 | 0.00 | 91 | 999.8 |
| 20260502122604 | 39 | 242 | 0.0 | 0.0 | 0.00 | 0.00 | 0.00 | 91 | 999.7 |
| 20260502122059 | 39 | 254 | 0.0 | 0.0 | 0.00 | 0.00 | 0.00 | 91 | 999.7 |
| 20260502121559 | 39 | 265 | 0.0 | 0.0 | 0.00 | 0.00 | 0.00 | 92 | 999.6 |
| 20260502121101 | 39 | 266 | 0.0 | 0.0 | 0.00 | 0.00 | 0.00 | 92 | 999.6 |
| 20260502120557 | 39 | 266 | 0.0 | 0.0 | 0.00 | 0.00 | 0.00 | 92 | 999.6 |
| 20260502115556 | 38 | 227 | 0.0 | 0.0 | 0.00 | 0.00 | 0.00 | 92 | 999.7 |
| 20260502115055 | 38 | 233 | 0.0 | 0.0 | 0.00 | 0.00 | 0.00 | 92 | 999.7 |
| 20260502114554 | 38 | 248 | 0.0 | 0.0 | 0.00 | 0.00 | 0.00 | 92 | 999.6 |
| 20260502114055 | 38 | 250 | 0.0 | 0.0 | 0.00 | 0.00 | 0.00 | 92 | 999.5 |
| 20260502113554 | 38 | 249 | 0.0 | 0.0 | 0.00 | 0.00 | 0.00 | 92 | 999.6 |
| 20260502113103 | 38 | 249 | 0.0 | 0.0 | 0.00 | 0.00 | 0.00 | 92 | 999.6 |
| 20260502112552 | 38 | 250 | 0.0 | 0.0 | 0.00 | 0.00 | 0.00 | 92 | 999.4 |
| 20260502112052 | 38 | 250 | 0.0 | 0.0 | 0.00 | 0.00 | 0.00 | 92 | 999.4 |
| 20260502111552 | 38 | 252 | 0.0 | 0.0 | 0.00 | 0.00 | 0.00 | 92 | 999.5 |
| 20260502111052 | 37 | 252 | 0.0 | 0.0 | 0.00 | 0.00 | 0.00 | 92 | 999.4 |
| 20260502110550 | 37 | 252 | 0.0 | 0.0 | 0.00 | 0.00 | 0.00 | 92 | 999.4 |
| 20260502110049 | 37 | 253 | 0.0 | 0.0 | 0.00 | 0.00 | 0.00 | 92 | 999.3 |
| 20260502105548 | 37 | 252 | 0.0 | 0.0 | 0.00 | 0.00 | 0.00 | 92 | 999.3 |
| 20260502105050 | 37 | 252 | 0.0 | 0.0 | 0.00 | 0.00 | 0.00 | 92 | 999.3 |
| 20260502104552 | 37 | 252 | 0.0 | 0.0 | 0.00 | 0.00 | 0.00 | 92 | 999.3 |
| 20260502104047 | 37 | 263 | 0.0 | 0.0 | 0.00 | 0.00 | 0.00 | 92 | 999.3 |
| 20260502103546 | 37 | 267 | 0.0 | 0.0 | 0.00 | 0.00 | 0.00 | 92 | 999.2 |
| 20260502103045 | 37 | 267 | 0.0 | 0.0 | 0.00 | 0.00 | 0.00 | 92 | 999.1 |
| 20260502102547 | 37 | 267 | 0.0 | 0.0 | 0.00 | 0.00 | 0.00 | 91 | 998.9 |
| 20260502102044 | 37 | 267 | 0.0 | 0.0 | 0.00 | 0.00 | 0.00 | 91 | 998.8 |
| 20260502101601 | 37 | 267 | 0.0 | 0.0 | 0.00 | 0.00 | 0.00 | 91 | 998.8 |
| 20260502101042 | 37 | 267 | 0.0 | 0.0 | 0.00 | 0.00 | 0.00 | 91 | 998.8 |
| 20260502100542 | 37 | 267 | 0.0 | 0.0 | 0.00 | 0.00 | 0.00 | 91 | 998.7 |
| 20260502091043 | 36 | 263 | 0.0 | 0.0 | 0.00 | 0.00 | 0.00 | 91 | 998.5 |
| 20260502090541 | 36 | 257 | 0.0 | 0.0 | 0.00 | 0.00 | 0.00 | 90 | 998.6 |
| 20260502071522 | 40 | 238 | 0.0 | 0.0 | 0.00 | 0.00 | 0.00 | 85 | 998.6 |
| 20260502071021 | 40 | 230 | 0.0 | 0.0 | 0.00 | 0.00 | 0.00 | 85 | 998.7 |
| 20260502070521 | 40 | 224 | 0.0 | 0.0 | 0.00 | 0.00 | 0.00 | 85 | 998.6 |
| 20260502070037 | 40 | 225 | 0.0 | 0.0 | 0.00 | 0.00 | 0.00 | 85 | 998.7 |
| 20260502065521 | 40 | 240 | 0.0 | 0.0 | 0.00 | 0.00 | 0.00 | 85 | 998.7 |
| 20260502065024 | 40 | 240 | 0.0 | 0.0 | 0.00 | 0.00 | 0.00 | 84 | 998.7 |
| 20260502064520 | 40 | 242 | 0.0 | 0.0 | 0.00 | 0.00 | 0.00 | 84 | 998.7 |
| 20260502064019 | 40 | 242 | 0.0 | 0.0 | 0.00 | 0.00 | 0.00 | 84 | 998.7 |
| 20260502063520 | 40 | 242 | 0.0 | 0.0 | 0.00 | 0.00 | 0.00 | 83 | 998.7 |
| 20260502063021 | 41 | 242 | 0.0 | 0.0 | 0.00 | 0.00 | 0.00 | 83 | 998.6 |
| 20260502062516 | 41 | 242 | 0.0 | 0.0 | 0.00 | 0.00 | 0.00 | 83 | 998.7 |
| 20260502062015 | 41 | 245 | 0.0 | 0.0 | 0.00 | 0.00 | 0.00 | 83 | 998.8 |
| 20260502061517 | 41 | 247 | 0.0 | 0.0 | 0.00 | 0.00 | 0.00 | 83 | 998.8 |
| 20260502061015 | 41 | 240 | 0.0 | 0.0 | 0.00 | 0.00 | 0.00 | 83 | 998.8 |
| 20260502060514 | 41 | 244 | 0.0 | 0.0 | 0.00 | 0.00 | 0.00 | 82 | 998.8 |
| 20260502060026 | 41 | 244 | 0.0 | 0.0 | 0.00 | 0.00 | 0.00 | 82 | 998.8 |
| 20260502055515 | 41 | 222 | 0.0 | 0.0 | 0.00 | 0.00 | 0.00 | 82 | 998.8 |
| 20260502055017 | 41 | 238 | 0.0 | 0.0 | 0.00 | 0.00 | 0.00 | 82 | 998.9 |
| 20260502054514 | 42 | 227 | 0.0 | 0.0 | 0.00 | 0.00 | 0.00 | 82 | 998.9 |
| 20260502054012 | 42 | 223 | 0.0 | 0.0 | 0.00 | 0.00 | 0.00 | 81 | 998.9 |
| 20260502053511 | 42 | 219 | 0.0 | 0.0 | 0.00 | 0.00 | 0.00 | 81 | 998.9 |
| 20260502053011 | 42 | 207 | 0.0 | 0.0 | 0.00 | 0.00 | 0.00 | 81 | 998.9 |
| 20260502052518 | 42 | 239 | 0.0 | 0.0 | 0.00 | 0.00 | 0.00 | 81 | 998.9 |
| 20260502052011 | 42 | 240 | 0.0 | 0.0 | 0.00 | 0.00 | 0.00 | 80 | 998.9 |
| 20260502051509 | 42 | 203 | 0.0 | 0.0 | 0.00 | 0.00 | 0.00 | 80 | 998.9 |
| 20260502051013 | 42 | 230 | 0.0 | 0.0 | 0.00 | 0.00 | 0.00 | 80 | 998.9 |
| 20260502050507 | 42 | 230 | 0.0 | 0.0 | 0.00 | 0.00 | 0.00 | 80 | 999.0 |
| 20260502050015 | 43 | 228 | 0.0 | 0.0 | 0.00 | 0.00 | 0.00 | 80 | 999.0 |
| 20260502045507 | 43 | 229 | 0.0 | 0.0 | 0.00 | 0.00 | 0.00 | 80 | 999.0 |
| 20260502045010 | 43 | 228 | 0.0 | 0.0 | 0.00 | 0.00 | 0.00 | 80 | 999.0 |
| 20260502044505 | 43 | 234 | 0.0 | 0.0 | 0.00 | 0.00 | 0.00 | 80 | 999.0 |
| 20260502044005 | 43 | 243 | 0.0 | 0.0 | 0.00 | 0.00 | 0.00 | 80 | 999.1 |
| 20260502043508 | 43 | 243 | 0.0 | 0.0 | 0.00 | 0.00 | 0.00 | 80 | 999.0 |
| 20260502043004 | 43 | 244 | 0.0 | 0.0 | 0.00 | 0.00 | 0.00 | 79 | 999.1 |
| 20260502042503 | 43 | 244 | 0.0 | 0.0 | 0.00 | 0.00 | 0.00 | 78 | 999.1 |
| 20260502042003 | 43 | 245 | 0.0 | 0.0 | 0.00 | 0.00 | 0.00 | 78 | 999.1 |
| 20260502041507 | 43 | 215 | 0.0 | 0.0 | 0.00 | 0.00 | 0.00 | 78 | 999.1 |
| 20260502041001 | 43 | 232 | 0.0 | 0.0 | 0.00 | 0.00 | 0.00 | 78 | 999.0 |
| 20260502040502 | 43 | 298 | 0.0 | 0.0 | 0.00 | 0.00 | 0.00 | 78 | 999.0 |
| 20260502040000 | 43 | 298 | 0.0 | 0.0 | 0.00 | 0.00 | 0.00 | 78 | 999.0 |
| 20260502035500 | 43 | 298 | 0.0 | 0.0 | 0.00 | 0.00 | 0.00 | 78 | 999.0 |
| 20260502035101 | 43 | 298 | 0.0 | 0.0 | 0.00 | 0.00 | 0.00 | 78 | 999.0 |
| 20260502034601 | 43 | 298 | 0.0 | 0.0 | 0.00 | 0.00 | 0.00 | 78 | 998.8 |
| 20260502034101 | 43 | 298 | 0.0 | 0.0 | 0.00 | 0.00 | 0.00 | 78 | 998.8 |
| 20260502033601 | 43 | 298 | 0.0 | 0.0 | 0.00 | 0.00 | 0.00 | 77 | 998.8 |
| 20260502033100 | 43 | 298 | 0.0 | 0.0 | 0.00 | 0.00 | 0.00 | 77 | 998.7 |
| 20260502032559 | 43 | 298 | 0.0 | 0.0 | 0.00 | 0.00 | 0.00 | 77 | 998.7 |
| 20260502032059 | 43 | 298 | 0.0 | 0.0 | 0.00 | 0.00 | 0.00 | 78 | 998.7 |
| 20260502031602 | 43 | 298 | 0.0 | 0.0 | 0.00 | 0.00 | 0.00 | 78 | 998.7 |
| 20260502031102 | 43 | 298 | 0.0 | 0.0 | 0.00 | 0.00 | 0.00 | 78 | 998.7 |
| 20260502030559 | 43 | 298 | 0.0 | 0.0 | 0.00 | 0.00 | 0.00 | 78 | 998.7 |
| 20260502030119 | 43 | 298 | 0.0 | 0.0 | 0.00 | 0.00 | 0.00 | 78 | 998.8 |
| 20260502025559 | 43 | 298 | 0.0 | 0.0 | 0.00 | 0.00 | 0.00 | 78 | 998.7 |
| 20260502025059 | 43 | 298 | 0.0 | 0.0 | 0.00 | 0.00 | 0.00 | 79 | 998.8 |
| 20260502024606 | 43 | 298 | 0.0 | 0.0 | 0.00 | 0.00 | 0.00 | 79 | 998.8 |
| 20260502024059 | 43 | 298 | 0.0 | 0.0 | 0.00 | 0.00 | 0.00 | 79 | 998.8 |
| 20260502023559 | 43 | 298 | 0.0 | 0.0 | 0.00 | 0.00 | 0.00 | 78 | 998.8 |
| 20260502023135 | 44 | 298 | 0.0 | 0.0 | 0.00 | 0.00 | 0.00 | 78 | 998.8 |
| 20260502022601 | 44 | 298 | 0.0 | 0.0 | 0.00 | 0.00 | 0.00 | 77 | 998.8 |
| 20260502022057 | 44 | 298 | 0.0 | 0.0 | 0.00 | 0.00 | 0.00 | 77 | 998.8 |
| 20260502021559 | 44 | 298 | 0.0 | 0.0 | 0.00 | 0.00 | 0.00 | 76 | 998.8 |
| 20260502021057 | 44 | 298 | 0.0 | 0.0 | 0.00 | 0.00 | 0.00 | 75 | 998.9 |
| 20260502020557 | 44 | 298 | 0.0 | 0.0 | 0.00 | 0.00 | 0.00 | 72 | 998.9 |
| 20260502020103 | 44 | 298 | 0.0 | 0.0 | 0.00 | 0.00 | 0.00 | 71 | 998.8 |
| 20260502015557 | 44 | 298 | 0.0 | 0.0 | 0.00 | 0.00 | 0.00 | 71 | 998.9 |
| 20260502015058 | 44 | 298 | 0.0 | 0.0 | 0.00 | 0.00 | 0.00 | 70 | 998.9 |
| 20260502014606 | 44 | 298 | 0.0 | 0.0 | 0.00 | 0.00 | 0.00 | 70 | 998.9 |
| 20260502014057 | 44 | 298 | 0.0 | 0.0 | 0.00 | 0.00 | 0.00 | 70 | 998.9 |
| 20260502013557 | 45 | 298 | 0.0 | 0.0 | 0.00 | 0.00 | 0.00 | 70 | 999.0 |
| 20260502013101 | 45 | 298 | 0.0 | 0.0 | 0.00 | 0.00 | 0.00 | 71 | 998.9 |
| 20260502012556 | 45 | 298 | 0.0 | 0.0 | 0.00 | 0.00 | 0.00 | 70 | 998.8 |
| 20260502012056 | 45 | 298 | 0.0 | 0.0 | 0.00 | 0.00 | 0.00 | 69 | 998.9 |
| 20260502011607 | 45 | 298 | 0.0 | 0.0 | 0.00 | 0.00 | 0.00 | 68 | 998.9 |
| 20260502011055 | 45 | 298 | 0.0 | 0.0 | 0.00 | 0.00 | 0.00 | 67 | 998.8 |
| 20260502010556 | 45 | 298 | 0.0 | 0.0 | 0.00 | 0.00 | 0.00 | 66 | 998.9 |
| 20260502010056 | 46 | 298 | 0.0 | 0.0 | 0.00 | 0.00 | 0.00 | 66 | 998.8 |
| 20260502005556 | 46 | 298 | 0.0 | 0.0 | 0.00 | 0.00 | 0.00 | 65 | 998.7 |
| 20260502005059 | 46 | 298 | 0.0 | 0.0 | 0.00 | 0.00 | 0.00 | 65 | 998.7 |
| 20260502004556 | 46 | 298 | 0.0 | 0.0 | 0.00 | 0.00 | 0.00 | 64 | 998.8 |
| 20260502004055 | 46 | 298 | 0.0 | 0.0 | 0.00 | 0.00 | 0.00 | 64 | 998.8 |
| 20260502003555 | 46 | 298 | 0.0 | 0.0 | 0.00 | 0.00 | 0.00 | 64 | 998.7 |
| 20260502003055 | 47 | 298 | 0.0 | 0.0 | 0.00 | 0.00 | 0.00 | 64 | 998.6 |
| 20260502002600 | 47 | 298 | 0.0 | 0.0 | 0.00 | 0.00 | 0.00 | 63 | 998.6 |
| 20260502002054 | 47 | 298 | 0.0 | 0.0 | 0.00 | 0.00 | 0.00 | 62 | 998.6 |
| 20260502001601 | 47 | 298 | 0.0 | 0.0 | 0.00 | 0.00 | 0.00 | 61 | 998.5 |
| 20260502001055 | 47 | 298 | 0.0 | 0.0 | 0.00 | 0.00 | 0.00 | 60 | 998.5 |
| 20260502000554 | 48 | 298 | 0.0 | 0.0 | 0.00 | 0.00 | 0.00 | 60 | 998.4 |
| 20260502000106 | 48 | 298 | 0.0 | 0.0 | 0.00 | 0.00 | 0.00 | 59 | 998.5 |
| 20260501235554 | 48 | 297 | 0.0 | 0.0 | 0.00 | 0.00 | 0.00 | 59 | 998.4 |
| 20260501235054 | 48 | 360 | 0.0 | 0.0 | 0.00 | 0.00 | 0.00 | 58 | 998.4 |
| 20260501234554 | 48 | 312 | 0.0 | 0.0 | 0.00 | 0.00 | 0.00 | 57 | 998.4 |
| 20260501234055 | 48 | 313 | 0.0 | 0.0 | 0.00 | 0.00 | 0.00 | 57 | 998.4 |
| 20260501233554 | 48 | 360 | 0.0 | 0.0 | 0.00 | 0.00 | 0.00 | 57 | 998.3 |
| 20260501233112 | 48 | 267 | 0.0 | 0.0 | 0.00 | 0.00 | 0.00 | 58 | 998.3 |
| 20260501232554 | 48 | 309 | 0.0 | 0.0 | 0.00 | 0.00 | 0.00 | 57 | 998.2 |
| 20260501232053 | 49 | 316 | 0.0 | 0.0 | 0.00 | 0.00 | 0.00 | 58 | 998.2 |
| 20260501231618 | 49 | 298 | 0.0 | 0.0 | 0.00 | 0.00 | 0.00 | 57 | 998.1 |
| 20260501231053 | 49 | 303 | 0.0 | 0.0 | 0.00 | 0.00 | 0.00 | 57 | 998.2 |
| 20260501230553 | 49 | 287 | 0.0 | 0.0 | 0.00 | 0.00 | 0.00 | 57 | 998.1 |
| 20260501230116 | 49 | 330 | 0.0 | 0.0 | 0.00 | 0.00 | 0.00 | 57 | 998.1 |
| 20260501225553 | 49 | 334 | 0.0 | 0.0 | 0.00 | 0.00 | 0.00 | 56 | 998.1 |
| 20260501225054 | 49 | 285 | 0.0 | 0.0 | 0.00 | 0.00 | 0.00 | 55 | 998.1 |
| 20260501224557 | 49 | 294 | 0.0 | 0.0 | 0.00 | 0.00 | 0.00 | 55 | 998.1 |
| 20260501224052 | 49 | 317 | 0.0 | 0.0 | 0.00 | 0.00 | 0.00 | 56 | 998.1 |
| 20260501223553 | 49 | 299 | 0.0 | 5.0 | 0.00 | 0.00 | 0.00 | 56 | 998.0 |
| 20260501223055 | 50 | 311 | 0.0 | 5.0 | 0.00 | 0.00 | 0.00 | 55 | 998.0 |
| 20260501222551 | 50 | 303 | 0.0 | 1.0 | 0.00 | 0.00 | 0.00 | 55 | 998.0 |
| 20260501222050 | 50 | 269 | 0.0 | 0.0 | 0.00 | 0.00 | 0.00 | 57 | 998.1 |
| 20260501221602 | 50 | 339 | 0.0 | 3.0 | 0.00 | 0.00 | 0.00 | 56 | 998.1 |
| 20260501221050 | 51 | 307 | 0.0 | 4.0 | 0.00 | 0.00 | 0.00 | 54 | 998.1 |
| 20260501220550 | 51 | 327 | 0.0 | 9.0 | 0.00 | 0.00 | 0.00 | 54 | 998.0 |
| 20260501220057 | 51 | 273 | 0.0 | 9.0 | 0.00 | 0.00 | 0.00 | 53 | 998.0 |
| 20260501215550 | 51 | 244 | 0.0 | 0.0 | 0.00 | 0.00 | 0.00 | 52 | 998.0 |
| 20260501215050 | 50 | 253 | 0.0 | 8.0 | 0.00 | 0.00 | 0.00 | 54 | 998.0 |
| 20260501214549 | 50 | 252 | 0.0 | 2.0 | 0.00 | 0.00 | 0.00 | 57 | 998.0 |
| 20260501214049 | 49 | 360 | 0.0 | 10.0 | 0.00 | 0.00 | 0.00 | 55 | 998.0 |
| 20260501213548 | 48 | 335 | 1.0 | 10.0 | 0.00 | 0.00 | 0.00 | 59 | 998.1 |
| 20260501213050 | 48 | 148 | 0.0 | 11.0 | 0.00 | 0.00 | 0.00 | 59 | 998.1 |
| 20260501212548 | 47 | 261 | 0.0 | 11.0 | 0.00 | 0.00 | 0.00 | 58 | 998.1 |
| 20260501212049 | 48 | 282 | 0.0 | 15.0 | 0.00 | 0.00 | 0.00 | 60 | 998.3 |
| 20260501211547 | 48 | 236 | 6.0 | 15.0 | 0.00 | 0.00 | 0.00 | 58 | 998.2 |
| 20260501211046 | 49 | 228 | 0.0 | 14.0 | 0.00 | 0.00 | 0.00 | 57 | 998.0 |
| 20260501210546 | 50 | 360 | 5.0 | 14.0 | 0.00 | 0.00 | 0.00 | 54 | 998.0 |
| 20260501210046 | 51 | 360 | 1.0 | 12.0 | 0.00 | 0.00 | 0.00 | 51 | 997.9 |
| 20260501205548 | 51 | 360 | 0.0 | 8.0 | 0.00 | 0.00 | 0.00 | 52 | 997.8 |
| 20260501205045 | 51 | 317 | 1.0 | 8.0 | 0.00 | 0.00 | 0.00 | 51 | 997.9 |
| 20260501204546 | 51 | 269 | 0.0 | 9.0 | 0.00 | 0.00 | 0.00 | 51 | 997.8 |
| 20260501204047 | 51 | 263 | 0.0 | 9.0 | 0.00 | 0.00 | 0.00 | 49 | 997.8 |
| 20260501203544 | 51 | 251 | 0.0 | 3.0 | 0.00 | 0.00 | 0.00 | 50 | 997.8 |
| 20260501203042 | 51 | 269 | 0.0 | 3.0 | 0.00 | 0.00 | 0.00 | 51 | 997.8 |
| 20260501202541 | 51 | 249 | 0.0 | 1.0 | 0.00 | 0.00 | 0.00 | 50 | 997.8 |
| 20260501202040 | 51 | 230 | 0.0 | 0.0 | 0.00 | 0.00 | 0.00 | 53 | 997.8 |
| 20260501201542 | 51 | 271 | 0.0 | 0.0 | 0.00 | 0.00 | 0.00 | 51 | 997.9 |
| 20260501201039 | 51 | 256 | 0.0 | 3.0 | 0.00 | 0.00 | 0.00 | 51 | 997.9 |
| 20260501200538 | 51 | 295 | 0.0 | 7.0 | 0.00 | 0.00 | 0.00 | 52 | 997.8 |
| 20260501200037 | 51 | 227 | 0.0 | 7.0 | 0.00 | 0.00 | 0.00 | 50 | 997.9 |
| 20260501195536 | 52 | 232 | 0.0 | 3.0 | 0.00 | 0.00 | 0.00 | 49 | 997.9 |
| 20260501195036 | 52 | 259 | 0.0 | 12.0 | 0.00 | 0.00 | 0.00 | 52 | 997.9 |
| 20260501194536 | 52 | 252 | 0.0 | 12.0 | 0.00 | 0.00 | 0.00 | 49 | 997.9 |
| 20260501194035 | 53 | 254 | 0.0 | 8.0 | 0.00 | 0.00 | 0.00 | 48 | 998.0 |
| 20260501193534 | 53 | 290 | 0.0 | 13.0 | 0.00 | 0.00 | 0.00 | 47 | 998.0 |
| 20260501193038 | 53 | 299 | 1.0 | 13.0 | 0.00 | 0.00 | 0.00 | 50 | 998.1 |
| 20260501192534 | 53 | 306 | 1.0 | 10.0 | 0.00 | 0.00 | 0.00 | 47 | 998.0 |
| 20260501192034 | 51 | 294 | 0.0 | 12.0 | 0.00 | 0.00 | 0.00 | 49 | 998.2 |
| 20260501191534 | 51 | 236 | 0.0 | 12.0 | 0.00 | 0.00 | 0.00 | 50 | 998.2 |
| 20260501191035 | 52 | 276 | 1.0 | 11.0 | 0.00 | 0.00 | 0.00 | 49 | 998.2 |
| 20260501190532 | 52 | 257 | 3.0 | 11.0 | 0.00 | 0.00 | 0.00 | 47 | 998.2 |
| 20260501190032 | 53 | 306 | 0.0 | 4.0 | 0.00 | 0.00 | 0.00 | 47 | 998.2 |
| 20260501185530 | 52 | 241 | 0.0 | 9.0 | 0.00 | 0.00 | 0.00 | 50 | 998.3 |
| 20260501185030 | 50 | 263 | 0.0 | 9.0 | 0.00 | 0.00 | 0.00 | 52 | 998.3 |
| 20260501184531 | 51 | 244 | 0.0 | 3.0 | 0.00 | 0.00 | 0.00 | 51 | 998.4 |
| 20260501184030 | 51 | 252 | 0.0 | 11.0 | 0.00 | 0.00 | 0.00 | 52 | 998.4 |
| 20260501183530 | 52 | 277 | 0.0 | 8.0 | 0.00 | 0.00 | 0.00 | 50 | 998.4 |
| 20260501183030 | 51 | 217 | 1.0 | 9.0 | 0.00 | 0.00 | 0.00 | 48 | 998.4 |
| 20260501182529 | 51 | 238 | 1.0 | 9.0 | 0.00 | 0.00 | 0.00 | 53 | 998.5 |
| 20260501182033 | 51 | 278 | 0.0 | 11.0 | 0.00 | 0.00 | 0.00 | 51 | 998.6 |
| 20260501181531 | 52 | 317 | 1.0 | 13.0 | 0.00 | 0.00 | 0.00 | 49 | 998.6 |
| 20260501181029 | 51 | 281 | 1.0 | 13.0 | 0.00 | 0.00 | 0.00 | 53 | 998.6 |
| 20260501180528 | 51 | 249 | 1.0 | 9.0 | 0.00 | 0.00 | 0.00 | 50 | 998.6 |
| 20260501180028 | 51 | 331 | 0.0 | 9.0 | 0.00 | 0.00 | 0.00 | 53 | 998.6 |